Flight Track Log - Related Links

Times and Time Zones

All times are in EDT time to prevent confusion due to time zone crossing. See the UPS1216 flight status page for this flight to view local times or setup timezone preferences in your user account.

Time Position Orientation Groundspeed Altitude Reporting Facility
EDT Latitude Longitude Course Direction KTS MPH feet Rate Location/Type
Thu 03:42:27 AM 37.8030 -95.2730 273° West 394 453 38,000  Level FlightAware ADS-B
Thu 03:45:00 AM 37.8510 -94.9624 79° East  Level Estimated
Thu 03:46:00 AM 37.8696 -94.8404 79° East  Level Estimated
Thu 03:47:00 AM 37.8880 -94.7184 79° East  Level Estimated
Thu 03:48:00 AM 37.9064 -94.5964 79° East  Level Estimated
Thu 03:48:02 AM 37.8370 -96.1310 79° East 409 471 38,000  Level FlightAware ADS-B
Thu 03:48:57 AM 37.8410 -96.2510 272° West 406 467 38,000  Level FlightAware ADS-B
Thu 03:50:12 AM 37.8480 -96.4270 273° West 403 464 38,000  Level FlightAware ADS-B
Thu 03:50:52 AM 37.8500 -96.5190 272° West 396 456 38,000  Level FlightAware ADS-B
Thu 03:51:27 AM 37.8530 -96.5900 273° West 396 456 38,000  Level FlightAware ADS-B
Thu 03:52:17 AM 37.8570 -96.7220 272° West 393 452 38,000  Level FlightAware ADS-B
Thu 03:52:57 AM 37.8600 -96.8110 272° West 395 455 38,000  Level FlightAware ADS-B
Thu 03:53:37 AM 37.8630 -96.9090 272° West 399 459 38,000  Level FlightAware ADS-B
Thu 03:54:22 AM 37.8660 -97.0110 272° West 401 461 38,000  Level FlightAware ADS-B
Thu 03:55:02 AM 37.8690 -97.1030 272° West 402 463 38,000  Level FlightAware ADS-B
Thu 03:55:47 AM 37.8720 -97.2120 272° West 403 464 38,000  Level FlightAware ADS-B
Thu 03:56:27 AM 37.8750 -97.3050 272° West 403 464 38,000  Level FlightAware ADS-B
Thu 03:57:07 AM 37.8780 -97.3990 272° West 403 464 38,000  Level FlightAware ADS-B
Thu 03:57:52 AM 37.8800 -97.5050 271° West 404 465 38,000  Level FlightAware ADS-B
Thu 03:58:32 AM 37.8830 -97.5990 272° West 405 466 38,000  Level FlightAware ADS-B
Thu 03:59:17 AM 37.8860 -97.7070 272° West 406 467 38,000  Level FlightAware ADS-B
Thu 03:59:57 AM 37.8880 -97.8020 272° West 405 466 38,000 -480 Level FlightAware ADS-B
Thu 04:00:32 AM 37.8890 -97.8770 271° West 411 473 37,400 -1,412 Descending FlightAware ADS-B
Thu 04:01:22 AM 37.9030 -98.0100 278° West 449 517 36,000 -988 Descending FlightAware ADS-B
Thu 04:01:57 AM 37.9230 -98.0810 290° West 454 522 36,000  Level FlightAware ADS-B
Thu 04:02:42 AM 37.9240 -98.0790 58° Northeast 462 532 36,000  Level FlightAware ADS-B
Thu 04:03:22 AM 37.9320 -98.1000 296° West 465 535 36,000 -34,500 Level FlightAware ADS-B
Thu 04:03:42 AM 42.1980 -89.0950 55° Northeast 148 170 1,500 -57,600 Descending FlightAware ADS-B
Thu 04:03:57 AM 42.1990 -89.0800 85° East 155 178 2,400 103,500 Climbing FlightAware ADS-B
Thu 04:04:02 AM 37.9610 -98.1860 242° Southwest 465 535 36,000 1,200 Climbing FlightAware ADS-B
Thu 04:04:22 AM 42.1980 -89.0540 56° Northeast 198 228 2,900  Descending FlightAware ADS-B
Thu 04:04:52 AM 37.9970 -98.2920 242° Southwest 465 535 36,000 2,618 Climbing FlightAware ADS-B
Thu 04:05:17 AM 42.1980 -88.9780 57° Northeast 248 285 5,300  Descending FlightAware ADS-B
Thu 04:05:32 AM 38.0250 -98.3780 243° Southwest 465 535 36,000 4,000 Climbing FlightAware ADS-B
Thu 04:05:47 AM 42.1990 -88.9320 57° Northeast 240 276 7,300  Descending FlightAware ADS-B
Thu 04:06:12 AM 38.0540 -98.4630 244° Southwest 465 535 36,000 4,200 Climbing FlightAware ADS-B
Thu 04:06:17 AM 42.2000 -88.8860 57° Northeast 240 276 9,400  Descending FlightAware ADS-B
Thu 04:06:52 AM 38.0820 -98.5490 244° Southwest 465 535 36,000 3,900 Climbing FlightAware ADS-B
Thu 04:06:57 AM 42.2020 -88.8240 58° Northeast 251 289 12,000  Descending FlightAware ADS-B
Thu 04:07:32 AM 38.1110 -98.6340 245° Southwest 465 535 36,000 2,850 Climbing FlightAware ADS-B
Thu 04:07:37 AM 42.2020 -88.7580 58° Northeast 283 326 13,900  Descending FlightAware ADS-B
Thu 04:08:22 AM 38.1470 -98.7410 245° Southwest 465 535 36,000 15,600 Climbing FlightAware ADS-B
Thu 04:09:02 AM 38.1750 -98.8270 293° West 465 535 36,000  Level FlightAware ADS-B
Thu 04:09:42 AM 38.2040 -98.9130 293° West 465 535 36,000  Level FlightAware ADS-B
Thu 04:10:22 AM 38.2320 -98.9980 293° West 465 535 36,000 -20,400 Level FlightAware ADS-B
Thu 04:10:27 AM 42.2140 -88.3570 61° Northeast 414 476 20,700  Descending FlightAware ADS-B
Thu 04:11:02 AM 38.2610 -99.0840 248° West 465 535 36,000 2,400 Climbing FlightAware ADS-B
Thu 04:11:07 AM 42.2160 -88.2540 61° Northeast 429 494 22,300  Descending FlightAware ADS-B
Thu 04:11:52 AM 38.2970 -99.1910 248° West 465 535 36,000 9,671 Climbing FlightAware ADS-B
Thu 04:12:32 AM 38.3250 -99.2770 293° West 465 535 36,000 -6,424 Level FlightAware ADS-B
Thu 04:13:17 AM 42.2020 -87.8930 62° Northeast 462 532 26,900 -5,506 Descending FlightAware ADS-B
Thu 04:13:57 AM 42.1720 -87.7830 110° East 474 545 28,200 1,875 Climbing FlightAware ADS-B
Thu 04:14:37 AM 42.1410 -87.6690 110° East 481 554 29,400 1,976 Climbing FlightAware ADS-B
Thu 04:15:22 AM 42.1060 -87.5400 110° East 482 555 31,000 2,329 Climbing FlightAware ADS-B
Thu 04:16:02 AM 42.0760 -87.4280 110° East 473 544 32,700 2,325 Climbing FlightAware ADS-B
Thu 04:16:42 AM 42.0460 -87.3190 110° East 468 539 34,100 2,047 Climbing FlightAware ADS-B
Thu 04:17:27 AM 42.0120 -87.1970 111° Southeast 464 534 35,600 2,025 Climbing FlightAware ADS-B
Thu 04:18:02 AM 41.9860 -87.1030 110° East 458 527 36,800 1,800 Climbing FlightAware ADS-B
Thu 04:18:47 AM 41.9540 -86.9850 110° East 455 524 38,000 1,482 Climbing FlightAware ADS-B
Thu 04:19:27 AM 41.9240 -86.8780 111° Southeast 455 524 38,900 825 Climbing FlightAware ADS-B
Thu 04:20:07 AM 41.8940 -86.7730 111° Southeast 450 518 39,100 141 Climbing FlightAware ADS-B
Thu 04:20:52 AM 41.8620 -86.6580 110° East 448 516 39,100  Level FlightAware ADS-B
Thu 04:21:32 AM 41.8310 -86.5490 111° Southeast 450 518 39,100  Level FlightAware ADS-B
Thu 04:22:12 AM 41.8020 -86.4480 111° Southeast 454 522 39,100  Level FlightAware ADS-B
Thu 04:22:57 AM 41.7680 -86.3280 111° Southeast 457 526 39,100  Level FlightAware ADS-B
Thu 04:23:37 AM 41.7370 -86.2210 111° Southeast 458 527 39,100  Level FlightAware ADS-B
Thu 04:24:12 AM 41.7120 -86.1330 111° Southeast 458 527 39,100 -4,429 Level FlightAware ADS-B
Thu 04:24:19 AM 38.9286 -101.3720 262° West 429 494 36,000 -5,027 Descending FlightAware ADS-B
Thu 04:24:49 AM 38.9494 -101.4440 290° West 431 496 36,000  Level FlightAware ADS-B
Thu 04:25:20 AM 38.9704 -101.5180 290° West 432 497 36,000  Level FlightAware ADS-B
Thu 04:25:50 AM 38.9914 -101.5910 290° West 432 497 36,000  Level FlightAware ADS-B
Thu 04:26:20 AM 39.0121 -101.6650 290° West 432 497 36,000  Level FlightAware ADS-B
Thu 04:26:51 AM 39.0325 -101.7370 290° West 433 498 36,000  Level FlightAware ADS-B
Thu 04:27:21 AM 39.0529 -101.8110 290° West 434 499 36,000  Level FlightAware ADS-B
Thu 04:27:51 AM 39.0734 -101.8850 290° West 436 502 36,000  Level FlightAware ADS-B
Thu 04:28:21 AM 39.0940 -101.9590 290° West 435 501 36,000  Level FlightAware ADS-B
Thu 04:28:51 AM 39.1143 -102.0320 290° West 435 501 36,000  Level FlightAware ADS-B
Thu 04:29:22 AM 39.1351 -102.1070 290° West 436 502 36,000  Level FlightAware ADS-B
Thu 04:29:52 AM 39.1554 -102.1810 290° West 436 502 36,000  Level FlightAware ADS-B
Thu 04:30:22 AM 39.1759 -102.2550 290° West 437 503 36,000  Level FlightAware ADS-B
Thu 04:30:52 AM 39.1966 -102.3300 290° West 437 503 36,000  Level FlightAware ADS-B
Thu 04:31:23 AM 39.2172 -102.4050 290° West 437 503 36,000  Level FlightAware ADS-B
Thu 04:31:53 AM 39.2378 -102.4800 290° West 437 503 36,000  Level FlightAware ADS-B
Thu 04:32:24 AM 39.2582 -102.5550 289° West 437 503 36,000  Level FlightAware ADS-B
Thu 04:32:54 AM 39.2786 -102.6300 289° West 437 503 36,000  Level FlightAware ADS-B
Thu 04:33:24 AM 39.2991 -102.7050 289° West 437 503 36,000  Level FlightAware ADS-B
Thu 04:33:55 AM 39.3195 -102.7800 289° West 437 503 36,000  Level FlightAware ADS-B
Thu 04:34:25 AM 39.3398 -102.8560 289° West 438 504 36,000 -98 Level FlightAware ADS-B
Thu 04:34:56 AM 39.3602 -102.9310 289° West 436 502 35,900 -787 Descending FlightAware ADS-B
Thu 04:35:26 AM 39.3803 -103.0050 289° West 431 496 35,200 -2,100 Descending FlightAware ADS-B
Thu 04:35:56 AM 39.4003 -103.0790 289° West 431 496 33,800 -3,000 Descending FlightAware ADS-B
Thu 04:36:26 AM 39.4205 -103.1530 289° West 432 497 32,200 -3,246 Descending FlightAware ADS-B
Thu 04:36:57 AM 39.4407 -103.2280 289° West 434 499 30,500 -3,344 Descending FlightAware ADS-B
Thu 04:37:27 AM 39.4609 -103.3030 289° West 440 506 28,800 -3,200 Descending FlightAware ADS-B
Thu 04:37:57 AM 39.4812 -103.3790 289° West 446 513 27,300 -3,300 Descending FlightAware ADS-B
Thu 04:38:27 AM 39.5017 -103.4560 289° West 453 521 25,500 -2,900 Descending FlightAware ADS-B
Thu 04:38:57 AM 39.5221 -103.5320 289° West 443 510 24,400 -2,200 Descending FlightAware ADS-B
Thu 04:39:27 AM 39.5421 -103.6080 289° West 432 497 23,300 -2,066 Descending FlightAware ADS-B
Thu 04:39:58 AM 39.5617 -103.6820 289° West 422 486 22,300 -2,066 Descending FlightAware ADS-B
Thu 04:40:28 AM 39.5806 -103.7540 289° West 414 476 21,200 -2,421 Descending FlightAware ADS-B
Thu 04:40:55 AM 39.5972 -103.8180 289° West 412 474 20,000 -2,757 Descending FlightAware ADS-B
Thu 04:41:05 AM 39.6027 -103.8420 287° West 411 473 19,500 -2,870 Descending FlightAware ADS-B
Thu 04:41:18 AM 39.6066 -103.8740 279° West 407 468 18,900 -2,727 Descending FlightAware ADS-B
Thu 04:41:49 AM 39.6086 -103.9480 272° West 400 460 17,500 -2,656 Descending FlightAware ADS-B
Thu 04:42:19 AM 39.6086 -104.0200 270° West 395 455 16,200 -2,300 Descending FlightAware ADS-B
Thu 04:42:49 AM 39.6074 -104.0930 269° West 382 440 15,200 -1,180 Descending FlightAware ADS-B
Thu 04:43:20 AM 39.6060 -104.1600 268° West 353 406 15,000 -492 Descending FlightAware ADS-B
Thu 04:43:50 AM 39.6050 -104.2200 269° West 306 352 14,700 -600 Descending FlightAware ADS-B
Thu 04:44:20 AM 39.6040 -104.2730 269° West 283 326 14,400 -1,200 Descending FlightAware ADS-B
Thu 04:44:50 AM 39.6031 -104.3250 269° West 288 331 13,500 -2,200 Descending FlightAware ADS-B
Thu 04:45:20 AM 39.6026 -104.3780 269° West 293 337 12,200 -2,419 Descending FlightAware ADS-B
Thu 04:45:52 AM 39.6016 -104.4330 269° West 290 334 11,000 -2,237 Descending FlightAware ADS-B
Thu 04:46:19 AM 39.6005 -104.4790 268° West 282 325 10,000 -2,267 Descending FlightAware ADS-B
Thu 04:46:37 AM 39.5999 -104.5090 269° West 280 322 9,300 75,913 Descending FlightAware ADS-B
Thu 04:46:42 AM 40.6570 -82.5370 79° East 465 535 39,100 39,733 Climbing FlightAware ADS-B
Thu 04:47:22 AM 40.6260 -82.4350 112° Southeast 464 534 39,100  Level FlightAware ADS-B
Thu 04:48:07 AM 40.5880 -82.3100 112° Southeast 465 535 39,100  Level FlightAware ADS-B
Thu 04:48:47 AM 40.5560 -82.2030 111° Southeast 465 535 39,100  Level FlightAware ADS-B
Thu 04:49:27 AM 40.5240 -82.1010 112° Southeast 465 535 39,100  Level FlightAware ADS-B
Thu 04:50:07 AM 40.4910 -81.9950 112° Southeast 466 536 39,100  Level FlightAware ADS-B
Thu 04:50:52 AM 40.4540 -81.8780 113° Southeast 466 536 39,100  Level FlightAware ADS-B
Thu 04:51:32 AM 40.4200 -81.7730 113° Southeast 467 537 39,100  Level FlightAware ADS-B
Thu 04:52:17 AM 40.3820 -81.6510 112° Southeast 468 539 39,100  Level FlightAware ADS-B
Thu 04:52:57 AM 40.3500 -81.5500 113° Southeast 469 540 39,100  Level FlightAware ADS-B
Thu 04:53:37 AM 40.3160 -81.4450 113° Southeast 469 540 39,100  Level FlightAware ADS-B
Thu 04:54:22 AM 40.2780 -81.3220 112° Southeast 469 540 39,100  Level FlightAware ADS-B
Thu 04:55:02 AM 40.2450 -81.2170 112° Southeast 469 540 39,100  Level FlightAware ADS-B
Thu 04:55:47 AM 40.2080 -81.1000 112° Southeast 470 541 39,100  Level FlightAware ADS-B
Thu 04:56:27 AM 40.1750 -80.9970 113° Southeast 470 541 39,100  Level FlightAware ADS-B
Thu 04:57:07 AM 40.1400 -80.8900 113° Southeast 470 541 39,100  Level FlightAware ADS-B
Thu 04:57:52 AM 40.1040 -80.7760 112° Southeast 471 542 39,100  Level FlightAware ADS-B
Thu 04:58:27 AM 40.0750 -80.6880 113° Southeast 471 542 39,100  Level FlightAware ADS-B
Thu 04:59:17 AM 40.0330 -80.5590 113° Southeast 472 543 39,100  Level FlightAware ADS-B
Thu 04:59:57 AM 39.9950 -80.4450 113° Southeast 472 543 39,100  Level FlightAware ADS-B
Thu 05:00:37 AM 39.9610 -80.3400 113° Southeast 472 543 39,100  Level FlightAware ADS-B
Thu 05:01:22 AM 39.9210 -80.2200 113° Southeast 472 543 39,100  Level FlightAware ADS-B
Thu 05:01:57 AM 39.8950 -80.1390 113° Southeast 472 543 39,100  Level FlightAware ADS-B
Thu 05:02:57 AM 39.8490 -79.9800 111° Southeast 470 541 39,100  Level FlightAware ADS-B
Thu 05:03:42 AM 39.8230 -79.8550 105° East 469 540 39,100 -565 Level FlightAware ADS-B
Thu 05:04:22 AM 39.8010 -79.7500 105° East 462 532 38,300 -1,875 Descending FlightAware ADS-B
Thu 05:05:02 AM 39.7770 -79.6380 106° East 462 532 36,600 -1,553 Descending FlightAware ADS-B
Thu 05:05:47 AM 39.7510 -79.5160 105° East 468 539 36,100 -353 Descending FlightAware ADS-B
Thu 05:06:27 AM 39.7280 -79.4070 105° East 471 542 36,100  Level FlightAware ADS-B
Thu 05:07:12 AM 39.7010 -79.2830 106° East 477 549 36,100  Level FlightAware ADS-B
Thu 05:07:52 AM 39.6780 -79.1760 106° East 481 554 36,100  Level FlightAware ADS-B
Thu 05:08:32 AM 39.6530 -79.0620 106° East 482 555 36,100 -282 Level FlightAware ADS-B
Thu 05:09:17 AM 39.6250 -78.9370 106° East 465 535 35,700 -1,412 Descending FlightAware ADS-B
Thu 05:09:57 AM 39.6030 -78.8310 105° East 459 528 34,100 -3,106 Descending FlightAware ADS-B
Thu 05:10:42 AM 39.5770 -78.7090 105° East 462 532 31,300 -3,600 Descending FlightAware ADS-B
Thu 05:11:22 AM 39.5540 -78.6030 106° East 458 527 29,000 -3,825 Descending FlightAware ADS-B
Thu 05:12:02 AM 39.5310 -78.4970 106° East 460 529 26,200 -4,024 Descending FlightAware ADS-B
Thu 05:12:47 AM 39.5060 -78.3800 105° East 453 521 23,300 -3,741 Descending FlightAware ADS-B
Thu 05:13:27 AM 39.4830 -78.2770 106° East 441 507 20,900 -3,247 Descending FlightAware ADS-B
Thu 05:14:12 AM 39.4590 -78.1660 106° East 421 484 18,700 -2,824 Descending FlightAware ADS-B
Thu 05:14:52 AM 39.4380 -78.0730 106° East 409 471 16,900 -2,775 Descending FlightAware ADS-B
Thu 05:15:32 AM 39.4190 -77.9750 104° East 394 453 15,000 -1,765 Descending FlightAware ADS-B
Thu 05:16:17 AM 39.4170 -77.8930 92° East 388 447 14,400 -667 Descending FlightAware ADS-B
Thu 05:17:02 AM 39.4230 -77.7820 86° East 379 436 14,000 -525 Descending FlightAware ADS-B
Thu 05:17:37 AM 39.4280 -77.7060 85° East 372 428 13,700 -494 Descending FlightAware ADS-B
Thu 05:18:27 AM 39.4340 -77.6030 86° East 354 407 13,300 -988 Descending FlightAware ADS-B
Thu 05:19:02 AM 39.4380 -77.5280 86° East 336 387 12,300 -1,800 Descending FlightAware ADS-B
Thu 05:19:37 AM 39.4420 -77.4630 85° East 330 380 11,200 -1,200 Descending FlightAware ADS-B
Thu 05:20:27 AM 39.4480 -77.3700 85° East 295 339 10,600 -706 Descending FlightAware ADS-B
Thu 05:21:02 AM 39.4490 -77.3050 89° East 289 333 10,200 -943 Descending FlightAware ADS-B
Thu 05:21:37 AM 39.4380 -77.2460 104° East 278 320 9,500 -1,350 Descending FlightAware ADS-B
Thu 05:22:22 AM 39.4240 -77.1760 104° East 268 308 8,400 -1,760 Descending FlightAware ADS-B
Thu 05:22:52 AM 39.4160 -77.1310 103° East 261 300 7,300 -2,291 Descending FlightAware ADS-B
Thu 05:23:17 AM 39.4070 -77.0930 107° East 258 297 6,300 -2,400 Descending FlightAware ADS-B
Thu 05:23:47 AM 39.3970 -77.0460 105° East 255 293 5,100 -1,900 Descending FlightAware ADS-B
Thu 05:24:17 AM 39.3880 -77.0000 104° East 252 290 4,400 -1,091 Descending FlightAware ADS-B
Thu 05:24:42 AM 39.3800 -76.9660 107° East 239 275 4,100 -545 Descending FlightAware ADS-B
Thu 05:25:12 AM 39.3710 -76.9230 105° East 222 255 3,900 -545 Descending FlightAware ADS-B
Thu 05:25:37 AM 39.3650 -76.8920 104° East 212 244 3,600 -480 Descending FlightAware ADS-B
Thu 05:26:02 AM 39.3600 -76.8660 104° East 204 235 3,500 -400 Descending FlightAware ADS-B
Thu 05:26:22 AM 39.3530 -76.8420 111° Southeast 193 222 3,300 -600 Descending FlightAware ADS-B
Thu 05:26:32 AM 39.3480 -76.8340 129° Southeast 189 217 3,200 -300 Descending FlightAware ADS-B
Thu 05:27:02 AM 39.3300 -76.8170 144° Southeast 173 199 3,100 -400 Descending FlightAware ADS-B
Thu 05:27:32 AM 39.3090 -76.7970 144° Southeast 159 183 2,800 -686 Descending FlightAware ADS-B
Thu 05:28:12 AM 39.2880 -76.7770 144° Southeast 146 168 2,300 -700 Descending FlightAware ADS-B
Thu 05:28:32 AM 39.2770 -76.7670 145° Southeast 135 155 2,100 -667 Descending FlightAware ADS-B
Thu 05:28:57 AM 39.2640 -76.7540 142° Southeast 133 153 1,800 -686 Descending FlightAware ADS-B
Thu 05:29:42 AM 39.2470 -76.7390 146° Southeast 114 131 1,300 -429 Descending FlightAware ADS-B
Thu 05:30:07 AM 39.2370 -76.7300 145° Southeast 114 131 1,300 -400 Level FlightAware ADS-B
Thu 05:30:42 AM 39.2167 -76.7167 145° Southeast 116 133 900 -686 Descending Potomac TRACON
Thu 05:32:00 AM 39.1754 -76.6683 142° Southeast  Level Estimated
Thu 05:39:00 AM 39.1754 -76.6683 142° Southeast  Level Estimated
Thu 05:40:00 AM 39.1754 -76.6683 142° Southeast  Level Estimated

Login

Don't have an account? Register now (free) for customized features, flight alerts, and more!